sensor_id;sensor_type;location;lat;lon;timestamp;temperature;humidity
3818;DHT22;1924;48.078;11.516;2023-07-08T04:00:37;17.60;90.10
3818;DHT22;1924;48.078;11.516;2023-07-08T04:03:05;17.60;90.10
3818;DHT22;1924;48.078;11.516;2023-07-08T04:05:31;17.70;90.30
3818;DHT22;1924;48.078;11.516;2023-07-08T04:07:58;17.70;90.60
3818;DHT22;1924;48.078;11.516;2023-07-08T04:10:25;17.70;90.40
3818;DHT22;1924;48.078;11.516;2023-07-08T04:12:51;17.70;90.50
3818;DHT22;1924;48.078;11.516;2023-07-08T04:15:18;17.70;90.70
3818;DHT22;1924;48.078;11.516;2023-07-08T04:17:52;17.70;90.30
3818;DHT22;1924;48.078;11.516;2023-07-08T04:20:21;17.50;89.80
3818;DHT22;1924;48.078;11.516;2023-07-08T04:22:48;17.50;91.30
3818;DHT22;1924;48.078;11.516;2023-07-08T04:25:15;17.60;91.70
3818;DHT22;1924;48.078;11.516;2023-07-08T04:27:42;17.70;91.50
3818;DHT22;1924;48.078;11.516;2023-07-08T04:30:18;17.70;91.60
3818;DHT22;1924;48.078;11.516;2023-07-08T04:32:46;17.80;91.80
3818;DHT22;1924;48.078;11.516;2023-07-08T04:35:15;17.80;91.70
3818;DHT22;1924;48.078;11.516;2023-07-08T04:37:41;17.90;91.90
3818;DHT22;1924;48.078;11.516;2023-07-08T04:40:17;17.90;91.90
3818;DHT22;1924;48.078;11.516;2023-07-08T04:42:45;18.00;92.30
3818;DHT22;1924;48.078;11.516;2023-07-08T04:45:14;18.00;92.20
3818;DHT22;1924;48.078;11.516;2023-07-08T04:47:41;18.00;91.90
3818;DHT22;1924;48.078;11.516;2023-07-08T04:50:10;18.10;92.10
3818;DHT22;1924;48.078;11.516;2023-07-08T04:52:38;18.10;92.40
3818;DHT22;1924;48.078;11.516;2023-07-08T04:55:05;18.20;92.00
3818;DHT22;1924;48.078;11.516;2023-07-08T04:57:32;18.30;91.70
3818;DHT22;1924;48.078;11.516;2023-07-08T04:59:59;18.30;91.90
3818;DHT22;1924;48.078;11.516;2023-07-08T05:02:25;18.20;92.20
3818;DHT22;1924;48.078;11.516;2023-07-08T05:04:52;18.20;92.60
3818;DHT22;1924;48.078;11.516;2023-07-08T05:07:18;18.30;92.80
3818;DHT22;1924;48.078;11.516;2023-07-08T05:09:46;18.30;92.80
3818;DHT22;1924;48.078;11.516;2023-07-08T05:12:13;18.30;92.80
3818;DHT22;1924;48.078;11.516;2023-07-08T05:14:40;18.40;92.60
3818;DHT22;1924;48.078;11.516;2023-07-08T05:17:08;18.40;91.90
3818;DHT22;1924;48.078;11.516;2023-07-08T05:19:34;18.40;91.40
3818;DHT22;1924;48.078;11.516;2023-07-08T05:22:01;18.50;92.30
3818;DHT22;1924;48.078;11.516;2023-07-08T05:24:28;18.50;92.30
3818;DHT22;1924;48.078;11.516;2023-07-08T05:26:56;18.70;91.90
3818;DHT22;1924;48.078;11.516;2023-07-08T05:29:24;18.70;91.20
3818;DHT22;1924;48.078;11.516;2023-07-08T05:31:50;18.60;90.20
3818;DHT22;1924;48.078;11.516;2023-07-08T05:34:17;18.60;91.50
3818;DHT22;1924;48.078;11.516;2023-07-08T05:36:44;18.90;92.20
3818;DHT22;1924;48.078;11.516;2023-07-08T05:39:11;19.20;91.90
3818;DHT22;1924;48.078;11.516;2023-07-08T05:41:38;19.60;92.00
3818;DHT22;1924;48.078;11.516;2023-07-08T05:44:06;19.90;91.70
3818;DHT22;1924;48.078;11.516;2023-07-08T05:46:32;20.20;90.80
3818;DHT22;1924;48.078;11.516;2023-07-08T05:48:59;20.10;89.40
3818;DHT22;1924;48.078;11.516;2023-07-08T05:51:26;20.40;89.00
3818;DHT22;1924;48.078;11.516;2023-07-08T05:53:52;20.50;89.10
3818;DHT22;1924;48.078;11.516;2023-07-08T05:56:19;20.60;86.30
3818;DHT22;1924;48.078;11.516;2023-07-08T05:58:46;20.60;88.30
3818;DHT22;1924;48.078;11.516;2023-07-08T06:01:14;20.60;87.20
3818;DHT22;1924;48.078;11.516;2023-07-08T06:03:40;20.60;89.60
3818;DHT22;1924;48.078;11.516;2023-07-08T06:06:07;20.80;90.10
3818;DHT22;1924;48.078;11.516;2023-07-08T06:08:34;20.90;88.90
3818;DHT22;1924;48.078;11.516;2023-07-08T06:11:02;21.00;90.10
3818;DHT22;1924;48.078;11.516;2023-07-08T06:13:29;21.20;90.10
3818;DHT22;1924;48.078;11.516;2023-07-08T06:15:56;21.30;86.90
3818;DHT22;1924;48.078;11.516;2023-07-08T06:18:24;21.40;87.20
3818;DHT22;1924;48.078;11.516;2023-07-08T06:20:52;21.50;88.50
3818;DHT22;1924;48.078;11.516;2023-07-08T06:23:18;21.40;85.70
3818;DHT22;1924;48.078;11.516;2023-07-08T06:25:45;21.30;85.60
3818;DHT22;1924;48.078;11.516;2023-07-08T06:28:12;21.10;85.30
3818;DHT22;1924;48.078;11.516;2023-07-08T06:30:39;21.10;86.20
3818;DHT22;1924;48.078;11.516;2023-07-08T06:33:05;21.00;87.90
3818;DHT22;1924;48.078;11.516;2023-07-08T06:35:33;21.00;90.40
3818;DHT22;1924;48.078;11.516;2023-07-08T06:38:00;21.00;90.90
3818;DHT22;1924;48.078;11.516;2023-07-08T06:40:27;21.10;90.20
3818;DHT22;1924;48.078;11.516;2023-07-08T06:42:53;21.20;90.90
3818;DHT22;1924;48.078;11.516;2023-07-08T06:45:20;21.30;90.10
3818;DHT22;1924;48.078;11.516;2023-07-08T06:47:47;21.20;90.60
3818;DHT22;1924;48.078;11.516;2023-07-08T06:50:14;21.20;91.20
3818;DHT22;1924;48.078;11.516;2023-07-08T06:52:42;21.20;91.50
3818;DHT22;1924;48.078;11.516;2023-07-08T06:55:10;21.20;91.50
3818;DHT22;1924;48.078;11.516;2023-07-08T06:57:38;21.20;91.30
3818;DHT22;1924;48.078;11.516;2023-07-08T07:00:06;21.20;91.60
3818;DHT22;1924;48.078;11.516;2023-07-08T07:02:33;21.20;91.60
3818;DHT22;1924;48.078;11.516;2023-07-08T07:05:00;21.20;91.20
3818;DHT22;1924;48.078;11.516;2023-07-08T07:07:26;21.30;91.70
3818;DHT22;1924;48.078;11.516;2023-07-08T07:09:54;21.40;90.80
3818;DHT22;1924;48.078;11.516;2023-07-08T07:12:23;21.50;91.90
3818;DHT22;1924;48.078;11.516;2023-07-08T07:14:51;21.60;91.00
3818;DHT22;1924;48.078;11.516;2023-07-08T07:17:18;21.70;90.80
3818;DHT22;1924;48.078;11.516;2023-07-08T07:19:47;21.70;88.90
3818;DHT22;1924;48.078;11.516;2023-07-08T07:22:14;21.90;90.30
3818;DHT22;1924;48.078;11.516;2023-07-08T07:24:41;22.00;90.20
3818;DHT22;1924;48.078;11.516;2023-07-08T07:27:10;22.00;88.20
3818;DHT22;1924;48.078;11.516;2023-07-08T07:29:42;22.10;90.40
3818;DHT22;1924;48.078;11.516;2023-07-08T07:32:09;21.90;87.80
3818;DHT22;1924;48.078;11.516;2023-07-08T07:34:35;21.60;86.50
3818;DHT22;1924;48.078;11.516;2023-07-08T07:37:02;21.60;87.90
3818;DHT22;1924;48.078;11.516;2023-07-08T07:39:29;21.80;91.20
3818;DHT22;1924;48.078;11.516;2023-07-08T07:41:56;21.90;91.50
3818;DHT22;1924;48.078;11.516;2023-07-08T07:44:24;22.00;90.90
3818;DHT22;1924;48.078;11.516;2023-07-08T07:46:52;22.20;90.70
3818;DHT22;1924;48.078;11.516;2023-07-08T07:49:19;22.30;90.30
3818;DHT22;1924;48.078;11.516;2023-07-08T07:51:45;22.40;90.10
3818;DHT22;1924;48.078;11.516;2023-07-08T07:54:12;22.40;88.60
3818;DHT22;1924;48.078;11.516;2023-07-08T07:56:39;22.50;88.40
3818;DHT22;1924;48.078;11.516;2023-07-08T07:59:06;22.40;88.00
3818;DHT22;1924;48.078;11.516;2023-07-08T08:01:34;22.50;90.40
3818;DHT22;1924;48.078;11.516;2023-07-08T08:04:00;22.40;88.60
3818;DHT22;1924;48.078;11.516;2023-07-08T08:06:27;22.30;88.20
3818;DHT22;1924;48.078;11.516;2023-07-08T08:08:54;22.50;90.20
3818;DHT22;1924;48.078;11.516;2023-07-08T08:11:22;22.60;90.20
3818;DHT22;1924;48.078;11.516;2023-07-08T08:13:50;22.80;90.60
3818;DHT22;1924;48.078;11.516;2023-07-08T08:16:17;22.80;90.40
3818;DHT22;1924;48.078;11.516;2023-07-08T08:18:45;22.90;88.40
3818;DHT22;1924;48.078;11.516;2023-07-08T08:21:12;22.80;88.60
3818;DHT22;1924;48.078;11.516;2023-07-08T08:23:39;23.00;89.70
3818;DHT22;1924;48.078;11.516;2023-07-08T08:26:06;23.10;89.80
3818;DHT22;1924;48.078;11.516;2023-07-08T08:28:32;23.20;90.40
3818;DHT22;1924;48.078;11.516;2023-07-08T08:30:59;23.20;90.10
3818;DHT22;1924;48.078;11.516;2023-07-08T08:33:26;23.20;88.30
3818;DHT22;1924;48.078;11.516;2023-07-08T08:35:54;23.30;86.10
3818;DHT22;1924;48.078;11.516;2023-07-08T08:38:20;23.30;85.50
3818;DHT22;1924;48.078;11.516;2023-07-08T08:40:47;23.20;84.60
3818;DHT22;1924;48.078;11.516;2023-07-08T08:43:17;23.20;85.40
3818;DHT22;1924;48.078;11.516;2023-07-08T08:45:49;23.30;84.30
3818;DHT22;1924;48.078;11.516;2023-07-08T08:48:18;23.40;86.00
3818;DHT22;1924;48.078;11.516;2023-07-08T08:50:50;23.50;82.90
3818;DHT22;1924;48.078;11.516;2023-07-08T08:53:20;23.60;84.30
3818;DHT22;1924;48.078;11.516;2023-07-08T08:55:52;23.60;85.10
3818;DHT22;1924;48.078;11.516;2023-07-08T08:58:29;23.50;82.10
3818;DHT22;1924;48.078;11.516;2023-07-08T09:00:59;23.50;81.90
3818;DHT22;1924;48.078;11.516;2023-07-08T09:03:37;23.50;81.70
3818;DHT22;1924;48.078;11.516;2023-07-08T09:06:16;23.70;82.50
3818;DHT22;1924;48.078;11.516;2023-07-08T09:08:45;23.80;82.10
3818;DHT22;1924;48.078;11.516;2023-07-08T09:11:30;24.00;81.10
3818;DHT22;1924;48.078;11.516;2023-07-08T09:14:01;24.00;80.60
3818;DHT22;1924;48.078;11.516;2023-07-08T09:16:39;23.90;82.00
3818;DHT22;1924;48.078;11.516;2023-07-08T09:19:11;24.00;81.50
3818;DHT22;1924;48.078;11.516;2023-07-08T09:21:43;24.10;81.80
3818;DHT22;1924;48.078;11.516;2023-07-08T09:24:17;24.30;78.50
3818;DHT22;1924;48.078;11.516;2023-07-08T09:26:46;24.40;78.40
3818;DHT22;1924;48.078;11.516;2023-07-08T09:29:13;24.50;79.00
3818;DHT22;1924;48.078;11.516;2023-07-08T09:31:40;24.70;80.60
3818;DHT22;1924;48.078;11.516;2023-07-08T09:34:11;24.80;77.40
3818;DHT22;1924;48.078;11.516;2023-07-08T09:36:41;25.00;76.90
3818;DHT22;1924;48.078;11.516;2023-07-08T09:39:13;25.10;76.00
3818;DHT22;1924;48.078;11.516;2023-07-08T09:41:43;25.10;76.00
3818;DHT22;1924;48.078;11.516;2023-07-08T09:44:17;25.00;75.30
3818;DHT22;1924;48.078;11.516;2023-07-08T09:46:45;25.10;75.30
3818;DHT22;1924;48.078;11.516;2023-07-08T09:49:21;25.20;74.30
3818;DHT22;1924;48.078;11.516;2023-07-08T09:51:49;25.40;75.80
3818;DHT22;1924;48.078;11.516;2023-07-08T09:54:18;25.60;74.70
3818;DHT22;1924;48.078;11.516;2023-07-08T09:56:54;25.70;71.30
3818;DHT22;1924;48.078;11.516;2023-07-08T09:59:27;25.50;69.40
3818;DHT22;1924;48.078;11.516;2023-07-08T10:01:56;25.70;72.60
3818;DHT22;1924;48.078;11.516;2023-07-08T10:09:25;25.90;69.80
3818;DHT22;1924;48.078;11.516;2023-07-08T10:11:56;25.80;69.20
3818;DHT22;1924;48.078;11.516;2023-07-08T10:14:27;25.90;70.00
3818;DHT22;1924;48.078;11.516;2023-07-08T10:16:55;26.20;71.80
3818;DHT22;1924;48.078;11.516;2023-07-08T10:19:25;26.30;68.80
3818;DHT22;1924;48.078;11.516;2023-07-08T10:21:59;26.30;71.60
3818;DHT22;1924;48.078;11.516;2023-07-08T10:24:44;26.30;66.40
3818;DHT22;1924;48.078;11.516;2023-07-08T10:29:51;26.70;70.50
3818;DHT22;1924;48.078;11.516;2023-07-08T10:32:24;27.00;70.80
3818;DHT22;1924;48.078;11.516;2023-07-08T10:35:00;27.10;69.40
3818;DHT22;1924;48.078;11.516;2023-07-08T10:37:33;27.10;69.60
3818;DHT22;1924;48.078;11.516;2023-07-08T10:42:55;27.20;66.20
3818;DHT22;1924;48.078;11.516;2023-07-08T10:45:30;27.10;65.10
3818;DHT22;1924;48.078;11.516;2023-07-08T10:48:14;27.40;67.70
3818;DHT22;1924;48.078;11.516;2023-07-08T10:50:57;27.50;65.60
3818;DHT22;1924;48.078;11.516;2023-07-08T10:53:41;27.70;63.60
3818;DHT22;1924;48.078;11.516;2023-07-08T10:56:15;27.60;62.50
3818;DHT22;1924;48.078;11.516;2023-07-08T10:58:52;27.60;60.80
3818;DHT22;1924;48.078;11.516;2023-07-08T11:01:32;27.70;65.60
3818;DHT22;1924;48.078;11.516;2023-07-08T11:04:19;27.70;62.70
3818;DHT22;1924;48.078;11.516;2023-07-08T11:06:53;27.30;59.80
3818;DHT22;1924;48.078;11.516;2023-07-08T11:09:28;27.50;64.90
3818;DHT22;1924;48.078;11.516;2023-07-08T11:12:01;27.80;63.60
3818;DHT22;1924;48.078;11.516;2023-07-08T11:14:41;28.10;63.40
3818;DHT22;1924;48.078;11.516;2023-07-08T11:17:11;28.20;66.50
3818;DHT22;1924;48.078;11.516;2023-07-08T11:19:45;28.10;65.20
3818;DHT22;1924;48.078;11.516;2023-07-08T11:22:15;28.30;67.70
3818;DHT22;1924;48.078;11.516;2023-07-08T11:24:45;28.50;61.60
3818;DHT22;1924;48.078;11.516;2023-07-08T11:27:15;28.60;64.50
3818;DHT22;1924;48.078;11.516;2023-07-08T11:29:49;28.80;63.20
3818;DHT22;1924;48.078;11.516;2023-07-08T11:32:18;28.60;63.10
3818;DHT22;1924;48.078;11.516;2023-07-08T11:34:48;28.80;64.80
3818;DHT22;1924;48.078;11.516;2023-07-08T11:37:17;28.90;59.70
3818;DHT22;1924;48.078;11.516;2023-07-08T11:39:46;28.30;57.70
3818;DHT22;1924;48.078;11.516;2023-07-08T11:42:19;28.20;59.10
3818;DHT22;1924;48.078;11.516;2023-07-08T11:44:52;28.10;58.20
3818;DHT22;1924;48.078;11.516;2023-07-08T11:47:24;28.40;63.20
3818;DHT22;1924;48.078;11.516;2023-07-08T11:49:53;28.70;60.50
3818;DHT22;1924;48.078;11.516;2023-07-08T11:52:21;28.90;58.70
3818;DHT22;1924;48.078;11.516;2023-07-08T11:54:56;28.90;58.20
3818;DHT22;1924;48.078;11.516;2023-07-08T12:02:55;28.20;60.30
3818;DHT22;1924;48.078;11.516;2023-07-08T12:05:34;28.10;58.20
3818;DHT22;1924;48.078;11.516;2023-07-08T12:08:01;27.80;58.50
3818;DHT22;1924;48.078;11.516;2023-07-08T12:10:33;27.90;64.10
3818;DHT22;1924;48.078;11.516;2023-07-08T12:13:01;28.10;60.50
3818;DHT22;1924;48.078;11.516;2023-07-08T12:15:31;28.10;60.30
3818;DHT22;1924;48.078;11.516;2023-07-08T12:18:00;28.20;61.20
3818;DHT22;1924;48.078;11.516;2023-07-08T12:20:33;28.20;58.10
3818;DHT22;1924;48.078;11.516;2023-07-08T12:23:01;28.10;58.10
3818;DHT22;1924;48.078;11.516;2023-07-08T12:25:31;28.10;56.90
3818;DHT22;1924;48.078;11.516;2023-07-08T12:28:00;28.20;57.10
3818;DHT22;1924;48.078;11.516;2023-07-08T12:30:30;28.00;56.40
3818;DHT22;1924;48.078;11.516;2023-07-08T12:32:57;27.90;59.60
3818;DHT22;1924;48.078;11.516;2023-07-08T12:35:27;27.90;56.90
3818;DHT22;1924;48.078;11.516;2023-07-08T12:37:58;28.20;60.50
3818;DHT22;1924;48.078;11.516;2023-07-08T12:40:26;28.40;58.10
3818;DHT22;1924;48.078;11.516;2023-07-08T12:42:53;28.40;56.50
3818;DHT22;1924;48.078;11.516;2023-07-08T12:45:22;28.60;56.70
3818;DHT22;1924;48.078;11.516;2023-07-08T12:47:52;28.60;54.90
3818;DHT22;1924;48.078;11.516;2023-07-08T12:50:19;28.60;55.70
3818;DHT22;1924;48.078;11.516;2023-07-08T12:52:46;28.80;54.90
3818;DHT22;1924;48.078;11.516;2023-07-08T12:55:14;28.80;55.10
3818;DHT22;1924;48.078;11.516;2023-07-08T12:57:44;29.10;53.40
3818;DHT22;1924;48.078;11.516;2023-07-08T13:00:15;29.10;50.80
3818;DHT22;1924;48.078;11.516;2023-07-08T13:02:44;29.00;53.20
3818;DHT22;1924;48.078;11.516;2023-07-08T13:05:16;28.60;52.90
3818;DHT22;1924;48.078;11.516;2023-07-08T13:07:44;28.20;52.60
3818;DHT22;1924;48.078;11.516;2023-07-08T13:10:19;28.00;56.30
3818;DHT22;1924;48.078;11.516;2023-07-08T13:12:51;27.90;57.60
3818;DHT22;1924;48.078;11.516;2023-07-08T13:15:22;28.00;57.30
3818;DHT22;1924;48.078;11.516;2023-07-08T13:17:49;28.10;58.30
3818;DHT22;1924;48.078;11.516;2023-07-08T13:20:18;28.20;58.20
3818;DHT22;1924;48.078;11.516;2023-07-08T13:22:51;28.30;58.90
3818;DHT22;1924;48.078;11.516;2023-07-08T13:25:19;28.40;58.60
3818;DHT22;1924;48.078;11.516;2023-07-08T13:27:55;28.40;57.90
3818;DHT22;1924;48.078;11.516;2023-07-08T13:30:24;28.20;58.00
3818;DHT22;1924;48.078;11.516;2023-07-08T13:32:52;28.00;54.40
3818;DHT22;1924;48.078;11.516;2023-07-08T13:35:28;28.00;59.20
3818;DHT22;1924;48.078;11.516;2023-07-08T13:38:00;28.00;57.30
3818;DHT22;1924;48.078;11.516;2023-07-08T13:40:28;28.10;55.80
3818;DHT22;1924;48.078;11.516;2023-07-08T13:42:55;28.00;54.30
3818;DHT22;1924;48.078;11.516;2023-07-08T13:45:25;27.90;54.90
3818;DHT22;1924;48.078;11.516;2023-07-08T13:48:00;27.80;54.40
3818;DHT22;1924;48.078;11.516;2023-07-08T13:50:31;27.70;56.50
3818;DHT22;1924;48.078;11.516;2023-07-08T13:53:01;27.60;52.60
3818;DHT22;1924;48.078;11.516;2023-07-08T13:55:28;27.70;55.90
3818;DHT22;1924;48.078;11.516;2023-07-08T13:57:57;27.60;53.20
3818;DHT22;1924;48.078;11.516;2023-07-08T14:00:24;27.70;51.30
3818;DHT22;1924;48.078;11.516;2023-07-08T14:02:51;27.80;51.70
3818;DHT22;1924;48.078;11.516;2023-07-08T14:05:18;27.70;53.00
3818;DHT22;1924;48.078;11.516;2023-07-08T14:07:48;27.70;56.50
3818;DHT22;1924;48.078;11.516;2023-07-08T14:10:15;27.40;57.40
3818;DHT22;1924;48.078;11.516;2023-07-08T14:12:42;27.30;52.00
3818;DHT22;1924;48.078;11.516;2023-07-08T14:15:09;27.20;53.20
3818;DHT22;1924;48.078;11.516;2023-07-08T14:17:37;27.30;51.60
3818;DHT22;1924;48.078;11.516;2023-07-08T14:20:09;27.40;50.90
3818;DHT22;1924;48.078;11.516;2023-07-08T14:22:37;27.40;49.30
3818;DHT22;1924;48.078;11.516;2023-07-08T14:25:08;27.30;50.00
3818;DHT22;1924;48.078;11.516;2023-07-08T14:27:35;27.30;50.70
3818;DHT22;1924;48.078;11.516;2023-07-08T14:30:02;27.20;52.80
3818;DHT22;1924;48.078;11.516;2023-07-08T14:32:30;27.10;49.80
3818;DHT22;1924;48.078;11.516;2023-07-08T14:35:01;27.00;51.10
3818;DHT22;1924;48.078;11.516;2023-07-08T14:37:31;27.10;54.40
3818;DHT22;1924;48.078;11.516;2023-07-08T14:39:58;27.40;55.10
3818;DHT22;1924;48.078;11.516;2023-07-08T14:42:26;27.50;50.90
3818;DHT22;1924;48.078;11.516;2023-07-08T14:44:54;27.50;52.20
3818;DHT22;1924;48.078;11.516;2023-07-08T14:47:21;27.30;51.00
3818;DHT22;1924;48.078;11.516;2023-07-08T14:49:49;27.20;52.40
3818;DHT22;1924;48.078;11.516;2023-07-08T14:52:15;27.00;54.50
3818;DHT22;1924;48.078;11.516;2023-07-08T14:54:42;27.00;56.60
3818;DHT22;1924;48.078;11.516;2023-07-08T14:57:12;26.90;56.10
3818;DHT22;1924;48.078;11.516;2023-07-08T14:59:43;26.80;57.40
3818;DHT22;1924;48.078;11.516;2023-07-08T15:02:18;26.70;56.40
3818;DHT22;1924;48.078;11.516;2023-07-08T15:04:45;26.70;57.30
3818;DHT22;1924;48.078;11.516;2023-07-08T15:07:12;26.60;56.90
3818;DHT22;1924;48.078;11.516;2023-07-08T15:09:39;26.60;55.90
3818;DHT22;1924;48.078;11.516;2023-07-08T15:12:09;26.60;55.40
3818;DHT22;1924;48.078;11.516;2023-07-08T15:14:36;26.70;56.70
3818;DHT22;1924;48.078;11.516;2023-07-08T15:17:10;26.90;59.70
3818;DHT22;1924;48.078;11.516;2023-07-08T15:19:39;27.00;58.80
3818;DHT22;1924;48.078;11.516;2023-07-08T15:22:07;27.20;60.60
3818;DHT22;1924;48.078;11.516;2023-07-08T15:24:34;27.20;57.20
3818;DHT22;1924;48.078;11.516;2023-07-08T15:27:02;27.10;55.10
3818;DHT22;1924;48.078;11.516;2023-07-08T15:29:29;27.10;57.10
3818;DHT22;1924;48.078;11.516;2023-07-08T15:31:56;27.10;56.60
3818;DHT22;1924;48.078;11.516;2023-07-08T15:34:24;27.00;54.70
3818;DHT22;1924;48.078;11.516;2023-07-08T15:36:51;27.00;55.40
3818;DHT22;1924;48.078;11.516;2023-07-08T15:39:17;27.00;56.80
3818;DHT22;1924;48.078;11.516;2023-07-08T15:41:44;26.90;58.00
3818;DHT22;1924;48.078;11.516;2023-07-08T15:44:12;27.00;57.00
3818;DHT22;1924;48.078;11.516;2023-07-08T15:46:41;27.00;56.80
3818;DHT22;1924;48.078;11.516;2023-07-08T15:49:13;26.90;58.10
3818;DHT22;1924;48.078;11.516;2023-07-08T15:51:42;27.00;59.70
3818;DHT22;1924;48.078;11.516;2023-07-08T15:54:10;26.90;60.70
3818;DHT22;1924;48.078;11.516;2023-07-08T15:56:37;26.90;59.20
3818;DHT22;1924;48.078;11.516;2023-07-08T15:59:04;27.00;58.30
3818;DHT22;1924;48.078;11.516;2023-07-08T16:01:32;27.00;55.10
3818;DHT22;1924;48.078;11.516;2023-07-08T16:03:59;27.00;55.00
3818;DHT22;1924;48.078;11.516;2023-07-08T16:09:00;27.10;55.00
3818;DHT22;1924;48.078;11.516;2023-07-08T16:11:29;27.10;55.70
3818;DHT22;1924;48.078;11.516;2023-07-08T16:13:57;27.10;53.40
3818;DHT22;1924;48.078;11.516;2023-07-08T16:16:24;27.10;54.60
3818;DHT22;1924;48.078;11.516;2023-07-08T16:18:51;27.00;55.60
3818;DHT22;1924;48.078;11.516;2023-07-08T16:21:17;27.00;55.70
3818;DHT22;1924;48.078;11.516;2023-07-08T16:23:44;27.00;56.00
3818;DHT22;1924;48.078;11.516;2023-07-08T16:26:15;27.00;55.80
3818;DHT22;1924;48.078;11.516;2023-07-08T16:28:43;27.00;55.60
3818;DHT22;1924;48.078;11.516;2023-07-08T16:31:12;26.90;55.60
3818;DHT22;1924;48.078;11.516;2023-07-08T16:33:39;26.90;55.30
3818;DHT22;1924;48.078;11.516;2023-07-08T16:36:11;26.80;54.40
3818;DHT22;1924;48.078;11.516;2023-07-08T16:38:38;26.70;53.10
3818;DHT22;1924;48.078;11.516;2023-07-08T16:41:09;26.70;54.40
3818;DHT22;1924;48.078;11.516;2023-07-08T16:43:37;26.70;54.70
3818;DHT22;1924;48.078;11.516;2023-07-08T16:46:03;26.60;54.80
3818;DHT22;1924;48.078;11.516;2023-07-08T16:48:30;26.60;55.20
3818;DHT22;1924;48.078;11.516;2023-07-08T16:50:57;26.60;54.50
3818;DHT22;1924;48.078;11.516;2023-07-08T16:53:23;26.60;54.60
3818;DHT22;1924;48.078;11.516;2023-07-08T16:55:54;26.60;55.20
3818;DHT22;1924;48.078;11.516;2023-07-08T17:01:26;26.60;55.40
3818;DHT22;1924;48.078;11.516;2023-07-08T17:03:54;26.60;56.40
3818;DHT22;1924;48.078;11.516;2023-07-08T17:06:22;26.50;56.70
3818;DHT22;1924;48.078;11.516;2023-07-08T17:08:49;26.50;54.50
3818;DHT22;1924;48.078;11.516;2023-07-08T17:11:16;26.60;53.40
3818;DHT22;1924;48.078;11.516;2023-07-08T17:13:43;26.60;54.00
3818;DHT22;1924;48.078;11.516;2023-07-08T17:16:12;26.60;54.50
3818;DHT22;1924;48.078;11.516;2023-07-08T17:18:40;26.60;55.70
3818;DHT22;1924;48.078;11.516;2023-07-08T17:21:12;26.60;55.70
3818;DHT22;1924;48.078;11.516;2023-07-08T17:23:39;26.60;54.20
3818;DHT22;1924;48.078;11.516;2023-07-08T17:26:06;26.60;55.10
3818;DHT22;1924;48.078;11.516;2023-07-08T17:28:33;26.60;55.70
3818;DHT22;1924;48.078;11.516;2023-07-08T17:31:01;26.60;55.70
3818;DHT22;1924;48.078;11.516;2023-07-08T17:33:28;26.50;55.80
3818;DHT22;1924;48.078;11.516;2023-07-08T17:35:57;26.50;56.30
3818;DHT22;1924;48.078;11.516;2023-07-08T17:38:42;26.50;56.90
3818;DHT22;1924;48.078;11.516;2023-07-08T17:41:10;26.50;56.70
3818;DHT22;1924;48.078;11.516;2023-07-08T17:43:37;26.40;57.10
3818;DHT22;1924;48.078;11.516;2023-07-08T17:46:08;26.40;56.80
3818;DHT22;1924;48.078;11.516;2023-07-08T17:48:35;26.30;57.00
3818;DHT22;1924;48.078;11.516;2023-07-08T17:51:03;26.30;57.50
3818;DHT22;1924;48.078;11.516;2023-07-08T17:53:30;26.30;58.10
3818;DHT22;1924;48.078;11.516;2023-07-08T17:55:57;26.20;58.70
3818;DHT22;1924;48.078;11.516;2023-07-08T17:58:32;26.10;58.10
3818;DHT22;1924;48.078;11.516;2023-07-08T18:00:59;26.00;58.40
3818;DHT22;1924;48.078;11.516;2023-07-08T18:03:26;26.00;58.80
3818;DHT22;1924;48.078;11.516;2023-07-08T18:05:52;25.90;59.70
3818;DHT22;1924;48.078;11.516;2023-07-08T18:08:20;25.90;59.50
3818;DHT22;1924;48.078;11.516;2023-07-08T18:10:47;25.80;59.90
3818;DHT22;1924;48.078;11.516;2023-07-08T18:13:18;25.80;60.00
3818;DHT22;1924;48.078;11.516;2023-07-08T18:15:45;25.70;60.50
3818;DHT22;1924;48.078;11.516;2023-07-08T18:18:12;25.70;60.30
3818;DHT22;1924;48.078;11.516;2023-07-08T18:20:43;25.70;60.90
3818;DHT22;1924;48.078;11.516;2023-07-08T18:23:16;25.60;60.40
3818;DHT22;1924;48.078;11.516;2023-07-08T18:25:45;25.60;61.20
3818;DHT22;1924;48.078;11.516;2023-07-08T18:28:11;25.60;61.60
3818;DHT22;1924;48.078;11.516;2023-07-08T18:30:39;25.50;62.80
3818;DHT22;1924;48.078;11.516;2023-07-08T18:33:11;25.40;63.50
3818;DHT22;1924;48.078;11.516;2023-07-08T18:35:38;25.40;63.20
3818;DHT22;1924;48.078;11.516;2023-07-08T18:38:05;25.40;63.70
3818;DHT22;1924;48.078;11.516;2023-07-08T18:40:33;25.30;64.40
3818;DHT22;1924;48.078;11.516;2023-07-08T18:43:09;25.30;65.50
3818;DHT22;1924;48.078;11.516;2023-07-08T18:45:38;25.20;65.60
3818;DHT22;1924;48.078;11.516;2023-07-08T18:48:05;25.20;66.50
3818;DHT22;1924;48.078;11.516;2023-07-08T18:50:32;25.10;67.60
3818;DHT22;1924;48.078;11.516;2023-07-08T18:52:59;25.10;69.20
3818;DHT22;1924;48.078;11.516;2023-07-08T18:55:26;25.00;69.90
3818;DHT22;1924;48.078;11.516;2023-07-08T18:57:52;25.00;69.60
3818;DHT22;1924;48.078;11.516;2023-07-08T19:00:21;24.90;70.00
3818;DHT22;1924;48.078;11.516;2023-07-08T19:02:52;24.80;70.90
3818;DHT22;1924;48.078;11.516;2023-07-08T19:05:22;24.80;71.00
3818;DHT22;1924;48.078;11.516;2023-07-08T19:07:50;24.70;71.00
3818;DHT22;1924;48.078;11.516;2023-07-08T19:10:18;24.60;71.00
3818;DHT22;1924;48.078;11.516;2023-07-08T19:12:47;24.60;71.50
3818;DHT22;1924;48.078;11.516;2023-07-08T19:15:20;24.60;71.50
3818;DHT22;1924;48.078;11.516;2023-07-08T19:17:48;24.50;71.60
3818;DHT22;1924;48.078;11.516;2023-07-08T19:20:15;24.40;72.30
3818;DHT22;1924;48.078;11.516;2023-07-08T19:22:42;24.40;72.60
3818;DHT22;1924;48.078;11.516;2023-07-08T19:25:29;24.30;73.10
3818;DHT22;1924;48.078;11.516;2023-07-08T19:27:56;24.30;72.30
3818;DHT22;1924;48.078;11.516;2023-07-08T19:30:25;24.30;73.50
3818;DHT22;1924;48.078;11.516;2023-07-08T19:32:55;24.30;73.70
3818;DHT22;1924;48.078;11.516;2023-07-08T19:35:25;24.20;74.20
3818;DHT22;1924;48.078;11.516;2023-07-08T19:37:53;24.10;74.00
3818;DHT22;1924;48.078;11.516;2023-07-08T19:40:22;24.10;73.80
3818;DHT22;1924;48.078;11.516;2023-07-08T19:42:51;24.00;73.70
3818;DHT22;1924;48.078;11.516;2023-07-08T19:45:20;24.00;75.30
3818;DHT22;1924;48.078;11.516;2023-07-08T19:47:49;23.90;75.40
3818;DHT22;1924;48.078;11.516;2023-07-08T19:50:17;23.90;75.60
3818;DHT22;1924;48.078;11.516;2023-07-08T19:52:45;23.90;76.40
3818;DHT22;1924;48.078;11.516;2023-07-08T19:55:12;23.80;76.50
3818;DHT22;1924;48.078;11.516;2023-07-08T19:57:41;23.80;76.00
3818;DHT22;1924;48.078;11.516;2023-07-08T20:00:21;23.70;76.70
3818;DHT22;1924;48.078;11.516;2023-07-08T20:02:49;23.60;76.70
3818;DHT22;1924;48.078;11.516;2023-07-08T20:05:16;23.50;76.70
3818;DHT22;1924;48.078;11.516;2023-07-08T20:07:43;23.50;77.00
3818;DHT22;1924;48.078;11.516;2023-07-08T20:10:12;23.40;77.20
3818;DHT22;1924;48.078;11.516;2023-07-08T20:12:39;23.40;77.30
3818;DHT22;1924;48.078;11.516;2023-07-08T20:15:07;23.40;77.80
3818;DHT22;1924;48.078;11.516;2023-07-08T20:20:29;23.20;77.20